• Join FlightAware (Why Join?)
  • Login
  • US Flag 
10:12PM EDT


 

Airport Tracker/Info


-or-


 

Live Flight TrackerFlight Track Log ✈ AWI3939 ✈ 16-Jun-2013 ✈ CYYZ - KDCA

Flight Track Log - Related Links

Times and Time Zones

All times are in EDT time to prevent confusion due to time zone crossing. See the AWI3939 flight status page for this flight to view local times or setup timezone preferences in your user account.

Time Position Orientation Groundspeed Altitude Reporting Facility
EDT Latitude Longitude Course Direction KTS MPH feet Rate Location/Type
05:34PM 43.6500 -79.6167 158° South 10 12 1,000  Level Toronto Center
05:35PM 43.6167 -79.6333 200° South 170 196 2,800 2,100 Climbing Toronto Center
05:36PM 43.4332 -79.4890 121° Southeast  Level Estimated
05:36PM 43.5667 -79.6833 216° Southwest 220 253 5,200  Level Toronto Center
05:37PM 43.4447 -79.3685 83° East  Level FlightAware Approximate
05:37PM 43.5167 -79.6167 136° Southeast 250 288 7,100  Level Toronto Center
05:38PM 43.3627 -79.3236 125° Southeast  Level Estimated
05:38PM 43.5000 -79.5167 103° East 290 334 7,000  Level Toronto Center
05:39PM 43.2807 -79.2789 119° Southeast  Level Estimated
05:39PM 43.5167 -79.3833 80° East 300 345 7,900  Level Toronto Center
05:40PM 43.1933 -79.2314 158° South  Level Estimated
05:40PM 43.5167 -79.2667 90° East 320 368 9,900  Level Toronto Center
05:41PM 43.4833 -79.1333 109° East 350 403 11,200 1,680 Climbing Toronto Center
05:42PM 43.4500 -78.9833 107° East 380 437 13,300 1,860 Climbing Toronto Center
05:43PM 43.4000 -78.8833 125° Southeast 390 449 15,000 1,680 Climbing Toronto Center
05:44PM 43.3333 -78.7333 121° Southeast 400 460 16,700 2,040 Climbing Toronto Center
05:45PM 43.2833 -78.6000 117° Southeast 400 460 19,100 2,040 Climbing Toronto Center
05:46PM 43.1833 -78.5333 154° Southeast 380 437 20,800 1,500 Climbing Toronto Center
05:47PM 43.1000 -78.5167 172° South 370 426 22,200 1,080 Climbing Toronto Center
05:48PM 42.9667 -78.5000 175° South 390 449 23,000 420 Climbing Toronto Center
05:49PM 42.8978 -78.4944 177° South 393 452 23,000  Level Cleveland Center
05:50PM 42.7786 -78.4700 171° South 418 481 23,000  Level Cleveland Center
05:51PM 42.6614 -78.4431 170° South 430 495 23,000  Level Cleveland Center
05:52PM 42.5419 -78.4189 172° South 435 501 23,000  Level Cleveland Center
05:53PM 42.4228 -78.3947 171° South 435 501 23,000  Level Cleveland Center
05:54PM 42.3075 -78.3681 170° South 429 494 23,000  Level Cleveland Center
05:55PM 42.1947 -78.3467 172° South 429 494 23,000  Level Cleveland Center
05:56PM 42.0733 -78.3231 172° South 419 482 23,000  Level Cleveland Center
05:57PM 41.9644 -78.2961 170° South 408 470 23,000  Level Cleveland Center
05:58PM 41.8578 -78.2775 173° South 397 457 23,000  Level Cleveland Center
05:59PM 41.7508 -78.2536 171° South 392 451 23,000  Level Cleveland Center
06:00PM 41.6442 -78.2325 172° South 392 451 23,000  Level Cleveland Center
06:01PM 41.5372 -78.2086 171° South 392 451 23,000  Level Cleveland Center
06:02PM 41.4283 -78.1875 172° South 392 451 23,000  Level Cleveland Center
06:03PM 41.2811 -78.1569 171° South 384 442 23,000  Level New York Center
06:04PM 41.1769 -78.1233 166° South 384 442 23,000  Level New York Center
06:05PM 41.0719 -78.0708 159° South 389 448 23,000  Level New York Center
06:06PM 40.9708 -78.0186 159° South 394 453 23,000 -540 Level New York Center
06:07PM 40.8772 -77.9483 150° Southeast 394 453 22,000 -1,380 Descending New York Center
06:08PM 40.7953 -77.8547 139° Southeast 394 453 20,400 -1,500 Descending New York Center
06:09PM 40.7153 -77.7642 139° Southeast 389 448 19,000 -720 Descending New York Center
06:10PM 40.6289 -77.6706 141° Southeast 378 435 19,000  Level New York Center
06:11PM 40.5389 -77.6042 151° Southeast 371 427 19,000  Level New York Center
06:12PM 40.4508 -77.5408 151° Southeast 366 421 19,000  Level New York Center
06:13PM 40.3606 -77.4803 153° Southeast 366 421 19,000  Level New York Center
06:14PM 40.2683 -77.4142 151° Southeast 366 421 19,000  Level New York Center
06:15PM 40.1781 -77.3511 152° Southeast 366 421 19,000  Level New York Center
06:16PM 40.0878 -77.2883 152° Southeast 366 421 19,000  Level New York Center
06:17PM 39.9992 -77.2286 153° Southeast 366 421 19,000  Level New York Center
06:18PM 39.9128 -77.1692 152° Southeast 366 421 19,000  Level New York Center
06:19PM 39.8267 -77.1072 151° Southeast 352 405 19,000 -360 Level New York Center
06:20PM 39.7481 -77.0542 153° Southeast 359 413 18,400 -1,440 Descending New York Center
06:21PM 39.6475 -76.9858 152° Southeast 364 419 16,300 -2,100 Descending New York Center
06:22PM 39.5333 -76.9167 155° Southeast 350 403 13,700 -1,860 Descending Potomac TRACON
06:23PM 39.4500 -76.8500 148° Southeast 336 387 12,000 -840 Descending Potomac TRACON
06:24PM 39.3667 -76.8000 155° Southeast 333 383 12,000 -480 Level Potomac TRACON
06:25PM 39.3000 -76.7500 150° Southeast 332 382 11,100 -960 Descending Potomac TRACON
06:26PM 39.2000 -76.6833 153° Southeast 310 357 10,100 -540 Descending Potomac TRACON
06:27PM 39.1333 -76.7167 201° Southwest 285 328 10,000 -180 Descending Potomac TRACON
06:28PM 39.0667 -76.7833 218° Southwest 284 327 9,800 -1,020 Descending Potomac TRACON
06:29PM 39.0167 -76.8500 226° Southwest 266 306 8,000 -1,260 Descending Potomac TRACON
06:30PM 38.9667 -76.9000 218° Southwest 193 222 7,300 -900 Descending Potomac TRACON
06:31PM 38.9667 -76.9500 270° West 165 190 6,200 -600 Descending Potomac TRACON
06:32PM 38.9833 -77.0167 288° West 169 194 6,100 -240 Descending Potomac TRACON
06:33PM 39.0000 -77.0500 303° West 168 193 5,800 -540 Descending Potomac TRACON
06:34PM 39.0333 -77.1000 311° West 170 196 5,100 -900 Descending Potomac TRACON
06:35PM 39.0500 -77.1500 293° West 181 208 4,100 -1,080 Descending Potomac TRACON
06:36PM 39.0333 -77.2000 247° West 170 196 3,100 -540 Descending Potomac TRACON
06:37PM 38.9833 -77.2167 195° South 204 235 3,100  Level Potomac TRACON